Time;durP1;ratioP1;P1;durP2;ratioP2;P2;SDS_P1;SDS_P2;PMS_P1;PMS_P2;Temp;Humidity;BMP_temperature;BMP_pressure;BME280_temperature;BME280_humidity;BME280_pressure;Samples;Min_cycle;Max_cycle;Signal;HPM_P1;HPM_P2
2024/03/03 00:01:38;;;;;;;;;;;;;;;20.15;33.80;100792.54;102816;1292;63368;-79
2024/03/03 00:04:04;;;;;;;;;;;;;;;20.15;33.89;100790.23;102835;1291;62243;-79
2024/03/03 00:06:29;;;;;;;;;;;;;;;20.14;33.78;100785.98;102906;1290;62195;-79
2024/03/03 00:08:56;;;;;;;;;;;;;;;20.14;33.88;100784.92;102751;1291;72372;-79
2024/03/03 00:11:22;;;;;;;;;;;;;;;20.14;33.76;100782.23;102822;1294;62725;-79
2024/03/03 00:13:47;;;;;;;;;;;;;;;20.14;33.86;100782.05;102667;1289;62213;-81
2024/03/03 00:16:13;;;;;;;;;;;;;;;20.14;33.81;100776.36;102820;1292;62203;-79
2024/03/03 00:18:38;;;;;;;;;;;;;;;20.14;33.80;100771.36;102830;1292;62192;-82
2024/03/03 00:21:04;;;;;;;;;;;;;;;20.14;33.85;100773.17;102818;1292;72559;-80
2024/03/03 00:23:30;;;;;;;;;;;;;;;20.13;33.91;100767.13;102761;1296;62259;-79
2024/03/03 00:25:56;;;;;;;;;;;;;;;20.13;33.81;100769.99;102846;1292;62138;-82
2024/03/03 00:28:22;;;;;;;;;;;;;;;20.13;33.84;100773.91;102744;1291;62284;-79
2024/03/03 00:30:48;;;;;;;;;;;;;;;20.13;33.73;100769.83;102851;1291;63282;-81
2024/03/03 00:33:14;;;;;;;;;;;;;;;20.13;33.77;100770.92;102850;1291;63388;-79
2024/03/03 00:35:40;;;;;;;;;;;;;;;20.13;33.79;100771.28;102881;1290;62210;-78
2024/03/03 00:38:06;;;;;;;;;;;;;;;20.13;33.81;100776.45;103086;1291;62226;-79
2024/03/03 00:40:32;;;;;;;;;;;;;;;20.12;33.78;100775.59;102693;1291;62259;-79
2024/03/03 00:42:58;;;;;;;;;;;;;;;20.12;33.82;100773.10;102865;1293;72310;-79
2024/03/03 00:45:24;;;;;;;;;;;;;;;20.12;33.81;100773.48;102991;1291;62283;-79
2024/03/03 00:47:49;;;;;;;;;;;;;;;20.11;33.73;100772.43;102778;1292;63680;-80
2024/03/03 00:50:15;;;;;;;;;;;;;;;20.11;33.65;100769.41;102692;1291;62230;-80
2024/03/03 00:52:40;;;;;;;;;;;;;;;20.11;33.76;100770.30;102693;1296;62212;-80
2024/03/03 00:55:07;;;;;;;;;;;;;;;20.11;33.73;100766.36;102767;1291;62197;-81
2024/03/03 00:57:32;;;;;;;;;;;;;;;20.11;33.76;100760.66;102709;1289;76268;-79
2024/03/03 00:59:59;;;;;;;;;;;;;;;20.10;33.69;100756.73;102726;1295;62230;-81
2024/03/03 01:02:24;;;;;;;;;;;;;;;20.10;33.79;100756.56;102941;1289;62698;-79
2024/03/03 01:04:50;;;;;;;;;;;;;;;20.10;33.73;100752.86;102690;1291;62625;-80
2024/03/03 01:07:16;;;;;;;;;;;;;;;20.10;33.79;100752.32;102788;1290;63430;-80
2024/03/03 01:09:41;;;;;;;;;;;;;;;20.10;33.84;100752.34;102702;1291;62207;-80
2024/03/03 01:12:07;;;;;;;;;;;;;;;20.09;33.67;100750.93;102736;1291;62145;-79
2024/03/03 01:14:32;;;;;;;;;;;;;;;20.09;33.79;100748.66;102674;1291;62192;-81
2024/03/03 01:16:58;;;;;;;;;;;;;;;20.09;33.60;100748.09;102946;1294;62136;-79
2024/03/03 01:19:24;;;;;;;;;;;;;;;20.08;33.73;100741.34;102967;1290;62197;-79
2024/03/03 01:21:49;;;;;;;;;;;;;;;20.08;33.83;100734.02;103005;1292;62213;-80
2024/03/03 01:24:15;;;;;;;;;;;;;;;20.08;33.62;100735.14;102912;1294;62219;-79
2024/03/03 01:26:40;;;;;;;;;;;;;;;20.08;33.69;100732.63;103092;1291;63474;-79
2024/03/03 01:29:06;;;;;;;;;;;;;;;20.07;33.80;100730.16;102901;1291;63279;-80
2024/03/03 01:31:32;;;;;;;;;;;;;;;20.07;33.78;100726.95;102900;1290;62194;-79
2024/03/03 01:33:58;;;;;;;;;;;;;;;20.07;33.63;100727.13;102907;1294;62160;-82
2024/03/03 01:36:23;;;;;;;;;;;;;;;20.07;33.75;100727.30;103028;1289;63413;-80
2024/03/03 01:38:48;;;;;;;;;;;;;;;20.07;33.83;100725.54;102912;1294;62138;-79
2024/03/03 01:41:14;;;;;;;;;;;;;;;20.07;33.65;100725.91;102985;1291;62184;-79
2024/03/03 01:43:41;;;;;;;;;;;;;;;20.06;33.76;100723.23;102891;1290;62272;-79
2024/03/03 01:46:09;;;;;;;;;;;;;;;20.07;33.77;100721.47;102875;1291;62655;-81
2024/03/03 01:48:36;;;;;;;;;;;;;;;20.06;33.75;100718.83;102777;1291;62286;-79
2024/03/03 01:51:03;;;;;;;;;;;;;;;20.06;33.65;100722.73;102935;1290;73504;-81
2024/03/03 01:53:29;;;;;;;;;;;;;;;20.06;33.59;100721.48;102703;1289;74929;-79
2024/03/03 01:55:54;;;;;;;;;;;;;;;20.06;33.67;100722.41;102868;1289;62311;-78
2024/03/03 01:58:20;;;;;;;;;;;;;;;20.05;33.78;100720.66;102712;1290;63514;-78
2024/03/03 02:00:46;;;;;;;;;;;;;;;20.05;33.67;100719.02;102817;1292;63451;-81
2024/03/03 02:03:12;;;;;;;;;;;;;;;20.05;33.60;100719.59;102693;1295;62200;-79
2024/03/03 02:05:38;;;;;;;;;;;;;;;20.06;33.74;100721.90;102862;1292;62208;-80
2024/03/03 02:08:06;;;;;;;;;;;;;;;20.05;33.70;100721.55;102839;1290;62208;-80
2024/03/03 02:10:32;;;;;;;;;;;;;;;20.05;33.72;100722.13;102886;1291;62217;-79
2024/03/03 02:12:57;;;;;;;;;;;;;;;20.05;33.69;100716.77;102655;1291;63413;-83
2024/03/03 02:15:23;;;;;;;;;;;;;;;20.05;33.59;100718.92;102649;1291;62170;-79
2024/03/03 02:17:49;;;;;;;;;;;;;;;20.04;33.61;100720.02;102837;1294;62209;-79
2024/03/03 02:20:15;;;;;;;;;;;;;;;20.04;33.61;100721.64;102804;1291;63462;-79
2024/03/03 02:22:40;;;;;;;;;;;;;;;20.04;33.56;100720.04;102813;1291;62192;-79
2024/03/03 02:25:06;;;;;;;;;;;;;;;20.04;33.59;100717.39;102803;1291;73504;-80
2024/03/03 02:27:33;;;;;;;;;;;;;;;20.04;33.55;100719.31;102819;1291;62111;-79
2024/03/03 02:29:58;;;;;;;;;;;;;;;20.03;33.62;100715.44;102788;1291;62137;-79
2024/03/03 02:32:24;;;;;;;;;;;;;;;20.03;33.58;100718.84;102832;1290;62209;-80
2024/03/03 02:34:50;;;;;;;;;;;;;;;20.03;33.71;100723.11;102652;1291;62343;-80
2024/03/03 02:37:15;;;;;;;;;;;;;;;20.03;33.66;100717.96;102731;1291;62187;-81
2024/03/03 02:39:41;;;;;;;;;;;;;;;20.03;33.66;100718.34;102786;1293;62227;-78
2024/03/03 02:42:07;;;;;;;;;;;;;;;20.02;33.57;100716.03;102829;1292;62258;-79
2024/03/03 02:44:33;;;;;;;;;;;;;;;20.02;33.63;100712.48;102742;1291;62718;-81
2024/03/03 02:46:59;;;;;;;;;;;;;;;20.02;33.72;100717.11;102781;1291;62175;-79
2024/03/03 02:49:25;;;;;;;;;;;;;;;20.02;33.59;100717.50;102731;1291;62261;-79
2024/03/03 02:51:51;;;;;;;;;;;;;;;20.02;33.63;100717.88;102727;1291;62235;-79
2024/03/03 02:54:16;;;;;;;;;;;;;;;20.02;33.57;100717.15;102705;1291;62207;-80
2024/03/03 02:56:42;;;;;;;;;;;;;;;20.01;33.63;100725.95;102841;1291;63255;-79
2024/03/03 02:59:07;;;;;;;;;;;;;;;20.01;33.59;100726.67;102727;1292;74039;-80
2024/03/03 03:01:33;;;;;;;;;;;;;;;20.01;33.47;100726.13;102746;1293;62118;-79
2024/03/03 03:03:58;;;;;;;;;;;;;;;20.01;33.54;100730.23;102683;1290;62274;-79
2024/03/03 03:06:25;;;;;;;;;;;;;;;20.01;33.52;100730.80;102718;1291;63461;-81
2024/03/03 03:08:51;;;;;;;;;;;;;;;20.01;33.74;100732.42;102807;1291;62186;-78
2024/03/03 03:11:16;;;;;;;;;;;;;;;20.01;33.58;100732.77;102704;1297;62144;-82
2024/03/03 03:13:43;;;;;;;;;;;;;;;20.00;33.53;100730.67;102611;1291;75251;-79
2024/03/03 03:16:08;;;;;;;;;;;;;;;20.00;33.55;100734.06;102764;1291;62535;-79
2024/03/03 03:18:34;;;;;;;;;;;;;;;20.00;33.59;100737.29;102901;1291;62295;-80
2024/03/03 03:20:59;;;;;;;;;;;;;;;19.99;33.62;100738.75;102666;1291;62282;-81
2024/03/03 03:23:25;;;;;;;;;;;;;;;20.00;33.73;100739.09;102671;1296;62206;-79
2024/03/03 03:25:50;;;;;;;;;;;;;;;19.99;33.61;100738.21;102809;1291;63363;-78
2024/03/03 03:28:16;;;;;;;;;;;;;;;19.99;33.63;100737.71;102671;1291;62139;-80
2024/03/03 03:30:42;;;;;;;;;;;;;;;19.99;33.64;100736.27;102878;1291;62125;-79
2024/03/03 03:33:07;;;;;;;;;;;;;;;19.99;33.51;100734.51;102719;1290;62268;-80
2024/03/03 03:35:33;;;;;;;;;;;;;;;19.98;33.62;100737.58;102669;1291;62305;-81
2024/03/03 03:37:58;;;;;;;;;;;;;;;19.98;33.67;100737.93;102859;1294;62279;-79
2024/03/03 03:40:25;;;;;;;;;;;;;;;19.98;33.47;100737.79;102705;1291;62410;-81
2024/03/03 03:42:51;;;;;;;;;;;;;;;19.98;33.51;100737.07;102758;1291;62270;-78
2024/03/03 03:45:17;;;;;;;;;;;;;;;19.98;33.61;100735.47;102793;1292;63394;-79
2024/03/03 03:47:42;;;;;;;;;;;;;;;19.98;33.67;100735.13;102705;1293;62272;-78
2024/03/03 03:50:08;;;;;;;;;;;;;;;19.98;33.61;100731.38;102724;1290;62469;-80
2024/03/03 03:52:34;;;;;;;;;;;;;;;19.97;33.62;100732.85;102841;1291;63462;-80
2024/03/03 03:54:59;;;;;;;;;;;;;;;19.97;33.51;100735.70;102851;1290;63487;-79
2024/03/03 03:57:25;;;;;;;;;;;;;;;19.96;33.55;100735.02;102768;1290;73470;-79
2024/03/03 03:59:51;;;;;;;;;;;;;;;19.97;33.70;100735.56;102834;1294;62212;-79
2024/03/03 04:02:16;;;;;;;;;;;;;;;19.96;33.64;100738.96;102796;1289;62199;-80
2024/03/03 04:04:42;;;;;;;;;;;;;;;19.97;33.60;100738.77;102817;1291;63363;-79
2024/03/03 04:07:07;;;;;;;;;;;;;;;19.96;33.56;100739.33;102851;1292;63479;-80
2024/03/03 04:09:33;;;;;;;;;;;;;;;19.96;33.53;100745.23;102816;1290;72676;-79
2024/03/03 04:11:59;;;;;;;;;;;;;;;19.96;33.59;100738.66;102012;1294;1066091;-80
2024/03/03 04:14:25;;;;;;;;;;;;;;;19.95;33.58;100738.52;102858;1289;62197;-81
2024/03/03 04:16:51;;;;;;;;;;;;;;;19.95;33.59;100738.54;102870;1291;63337;-79
2024/03/03 04:19:16;;;;;;;;;;;;;;;19.95;33.60;100743.14;102857;1291;62191;-81
2024/03/03 04:21:42;;;;;;;;;;;;;;;19.95;33.46;100745.51;103061;1291;62102;-78
2024/03/03 04:24:07;;;;;;;;;;;;;;;19.95;33.47;100747.81;103073;1291;63030;-79
2024/03/03 04:26:33;;;;;;;;;;;;;;;19.94;33.56;100745.35;102674;1291;63338;-79
2024/03/03 04:28:58;;;;;;;;;;;;;;;19.94;33.51;100745.73;103007;1290;62404;-78
2024/03/03 04:31:24;;;;;;;;;;;;;;;19.94;33.56;100746.42;102910;1297;62242;-80
2024/03/03 04:33:50;;;;;;;;;;;;;;;19.94;33.39;100748.39;102988;1292;62204;-79
2024/03/03 04:36:16;;;;;;;;;;;;;;;19.94;33.44;100746.09;102826;1295;76278;-80
2024/03/03 04:38:42;;;;;;;;;;;;;;;19.93;33.34;100746.45;102750;1292;62251;-79
2024/03/03 04:41:20;;;;;;;;;;;;;;;19.93;33.51;100749.52;102744;1292;62204;-80
2024/03/03 04:43:45;;;;;;;;;;;;;;;19.94;33.45;100754.14;102633;1291;71258;-81
2024/03/03 04:46:11;;;;;;;;;;;;;;;19.93;33.52;100759.16;102709;1291;63412;-78
2024/03/03 04:48:37;;;;;;;;;;;;;;;19.92;33.46;100760.48;102776;1291;63248;-81
2024/03/03 04:51:02;;;;;;;;;;;;;;;19.92;33.43;100768.15;102704;1296;62277;-78
2024/03/03 04:53:28;;;;;;;;;;;;;;;19.92;33.50;100769.58;102688;1291;62116;-80
2024/03/03 04:55:53;;;;;;;;;;;;;;;19.92;33.35;100774.95;102980;1291;72341;-77
2024/03/03 04:58:20;;;;;;;;;;;;;;;19.92;33.34;100779.96;102727;1291;62359;-80
2024/03/03 05:00:45;;;;;;;;;;;;;;;19.92;33.29;100782.10;102711;1291;62210;-79
2024/03/03 05:03:11;;;;;;;;;;;;;;;19.92;33.28;100783.56;102705;1289;62539;-78
2024/03/03 05:05:36;;;;;;;;;;;;;;;19.91;33.33;100786.06;102790;1293;62221;-81
2024/03/03 05:08:02;;;;;;;;;;;;;;;19.91;33.46;100787.50;102702;1291;62628;-78
2024/03/03 05:10:27;;;;;;;;;;;;;;;19.91;33.25;100785.91;102728;1291;75257;-81
2024/03/03 05:12:53;;;;;;;;;;;;;;;19.91;33.34;100791.64;102755;1291;63268;-79
2024/03/03 05:15:18;;;;;;;;;;;;;;;19.91;33.49;100794.30;102745;1291;63330;-80
2024/03/03 05:17:44;;;;;;;;;;;;;;;19.91;33.48;100794.86;102681;1291;62231;-81
2024/03/03 05:20:10;;;;;;;;;;;;;;;19.90;33.22;100794.15;102809;1291;62233;-79
2024/03/03 05:22:36;;;;;;;;;;;;;;;19.90;33.29;100800.24;102716;1291;75257;-79
2024/03/03 05:25:04;;;;;;;;;;;;;;;19.90;33.33;100799.00;102701;1291;62109;-79
2024/03/03 05:27:30;;;;;;;;;;;;;;;19.90;33.38;100799.38;102832;1291;62576;-80
2024/03/03 05:29:56;;;;;;;;;;;;;;;19.89;33.30;100797.27;102694;1291;62854;-80
2024/03/03 05:32:22;;;;;;;;;;;;;;;19.90;33.31;100802.45;102746;1291;63201;-79
2024/03/03 05:34:48;;;;;;;;;;;;;;;19.89;33.24;100803.73;102822;1291;62141;-80
2024/03/03 05:37:14;;;;;;;;;;;;;;;19.89;33.24;100804.80;102665;1291;62223;-80
2024/03/03 05:39:40;;;;;;;;;;;;;;;19.89;33.31;100803.75;102683;1297;62176;-80
2024/03/03 05:42:06;;;;;;;;;;;;;;;19.89;33.41;100804.61;102723;1292;62846;-82
2024/03/03 05:44:32;;;;;;;;;;;;;;;19.88;33.34;100805.21;102752;1292;62206;-79
2024/03/03 05:46:57;;;;;;;;;;;;;;;19.88;33.19;100803.98;102917;1290;62098;-82
2024/03/03 05:49:23;;;;;;;;;;;;;;;19.88;33.28;100803.98;102937;1291;62336;-79
2024/03/03 05:51:49;;;;;;;;;;;;;;;19.88;33.31;100803.11;102937;1294;63403;-81
2024/03/03 05:54:14;;;;;;;;;;;;;;;19.88;33.15;100806.85;103068;1294;62236;-80
2024/03/03 05:56:40;;;;;;;;;;;;;;;19.88;33.14;100807.94;102951;1290;62200;-82
2024/03/03 05:59:05;;;;;;;;;;;;;;;19.87;33.17;100808.31;102918;1290;62083;-81
2024/03/03 06:01:31;;;;;;;;;;;;;;;19.87;33.38;100810.65;102726;1292;62233;-79
2024/03/03 06:03:56;;;;;;;;;;;;;;;19.87;33.27;100807.08;102866;1292;62221;-80
2024/03/03 06:06:23;;;;;;;;;;;;;;;19.87;33.21;100809.94;102807;1297;62233;-78
2024/03/03 06:08:50;;;;;;;;;;;;;;;19.87;33.30;100807.66;102751;1292;62437;-80
2024/03/03 06:11:16;;;;;;;;;;;;;;;19.87;33.30;100811.91;102841;1291;63334;-78
2024/03/03 06:13:42;;;;;;;;;;;;;;;19.86;33.31;100814.44;102748;1292;62461;-78
2024/03/03 06:16:08;;;;;;;;;;;;;;;19.86;33.16;100816.80;102727;1297;62293;-79
2024/03/03 06:18:33;;;;;;;;;;;;;;;19.86;33.24;100820.03;102868;1291;62222;-80
2024/03/03 06:20:59;;;;;;;;;;;;;;;19.86;33.21;100820.72;102905;1289;62684;-82
2024/03/03 06:23:25;;;;;;;;;;;;;;;19.85;33.20;100818.63;102834;1291;62190;-80
2024/03/03 06:25:51;;;;;;;;;;;;;;;19.85;33.27;100819.71;102697;1292;62199;-79
2024/03/03 06:28:16;;;;;;;;;;;;;;;19.85;33.15;100823.80;102727;1291;63441;-81
2024/03/03 06:30:42;;;;;;;;;;;;;;;19.85;33.17;100824.54;102835;1294;62748;-79
2024/03/03 06:33:12;;;;;;;;;;;;;;;19.85;33.22;100827.06;102720;1292;63396;-80
2024/03/03 06:35:37;;;;;;;;;;;;;;;19.84;33.15;100829.59;102959;1291;62810;-80
2024/03/03 06:38:03;;;;;;;;;;;;;;;19.85;33.12;100836.17;102668;1291;62200;-80
2024/03/03 06:40:29;;;;;;;;;;;;;;;19.84;33.10;100834.40;102476;1296;62292;-80
2024/03/03 06:42:54;;;;;;;;;;;;;;;19.84;33.21;100834.42;102493;1294;62225;-80
2024/03/03 06:45:20;;;;;;;;;;;;;;;19.84;33.02;100838.16;102604;1294;63625;-79
2024/03/03 06:47:46;;;;;;;;;;;;;;;19.84;33.08;100836.41;102485;1296;73756;-80
2024/03/03 06:50:11;;;;;;;;;;;;;;;19.84;33.07;100832.83;102565;1299;62256;-78
2024/03/03 06:52:37;;;;;;;;;;;;;;;19.84;33.08;100835.71;102497;1294;62641;-79
2024/03/03 06:55:03;;;;;;;;;;;;;;;19.83;33.11;100838.23;102544;1294;62390;-81
2024/03/03 06:57:29;;;;;;;;;;;;;;;19.83;33.12;100835.19;102529;1296;63456;-79
2024/03/03 06:59:54;;;;;;;;;;;;;;;19.84;33.26;100836.77;102600;1294;63389;-80
2024/03/03 07:02:20;;;;;;;;;;;;;;;19.83;33.12;100832.14;102527;1294;62289;-80
2024/03/03 07:04:46;;;;;;;;;;;;;;;19.83;33.13;100834.85;102532;1299;62423;-79
2024/03/03 07:07:11;;;;;;;;;;;;;;;19.83;33.14;100836.30;102606;1294;62393;-78
2024/03/03 07:09:37;;;;;;;;;;;;;;;19.83;33.12;100834.85;102449;1298;62456;-79
2024/03/03 07:12:03;;;;;;;;;;;;;;;19.82;33.14;100833.28;102653;1296;62198;-78
2024/03/03 07:14:28;;;;;;;;;;;;;;;19.82;33.08;100833.11;102706;1291;63641;-81
2024/03/03 07:16:55;;;;;;;;;;;;;;;19.82;33.03;100837.39;102689;1294;62220;-80
2024/03/03 07:19:20;;;;;;;;;;;;;;;19.82;33.20;100837.93;102851;1291;63365;-79
2024/03/03 07:21:46;;;;;;;;;;;;;;;19.82;33.17;100836.86;102734;1294;63364;-80
2024/03/03 07:24:11;;;;;;;;;;;;;;;19.82;33.13;100834.20;102696;1291;62241;-79
2024/03/03 07:26:37;;;;;;;;;;;;;;;19.82;33.16;100836.89;102675;1291;62255;-81
2024/03/03 07:29:03;;;;;;;;;;;;;;;19.82;33.14;100836.38;102853;1291;62216;-78
2024/03/03 07:31:28;;;;;;;;;;;;;;;19.82;33.05;100835.84;102705;1291;62248;-81
2024/03/03 07:33:54;;;;;;;;;;;;;;;19.83;33.21;100833.45;102729;1291;62212;-79
2024/03/03 07:36:20;;;;;;;;;;;;;;;19.82;33.14;100830.27;102878;1293;62633;-81
2024/03/03 07:38:45;;;;;;;;;;;;;;;19.82;33.08;100828.34;102794;1291;63437;-80
2024/03/03 07:41:11;;;;;;;;;;;;;;;19.82;33.12;100829.58;103059;1294;63359;-79
2024/03/03 07:43:36;;;;;;;;;;;;;;;19.82;33.10;100829.02;102901;1293;62100;-80
2024/03/03 07:46:02;;;;;;;;;;;;;;;19.82;33.13;100827.61;102938;1291;63409;-79
2024/03/03 07:48:28;;;;;;;;;;;;;;;19.82;33.21;100827.94;103006;1294;62115;-81
2024/03/03 07:50:54;;;;;;;;;;;;;;;19.82;33.14;100825.97;102990;1291;62198;-78
2024/03/03 07:53:20;;;;;;;;;;;;;;;19.82;33.27;100824.71;102898;1291;62139;-79
2024/03/03 07:55:46;;;;;;;;;;;;;;;19.82;33.19;100823.83;103142;1291;62203;-79
2024/03/03 07:58:12;;;;;;;;;;;;;;;19.83;33.18;100822.91;103343;1295;62567;-78
2024/03/03 08:00:38;;;;;;;;;;;;;;;19.83;33.35;100822.17;103030;1296;75294;-79
2024/03/03 08:03:04;;;;;;;;;;;;;;;19.83;33.29;100825.39;103046;1291;63388;-79
2024/03/03 08:05:32;;;;;;;;;;;;;;;19.83;33.30;100818.77;102881;1297;62133;-78
2024/03/03 08:07:58;;;;;;;;;;;;;;;19.83;33.25;100817.17;102978;1292;62181;-80
2024/03/03 08:10:24;;;;;;;;;;;;;;;19.84;33.31;100822.67;102750;1291;62797;-80
2024/03/03 08:12:49;;;;;;;;;;;;;;;19.83;33.32;100823.58;102833;1292;62203;-82
2024/03/03 08:15:15;;;;;;;;;;;;;;;19.83;33.15;100829.45;102839;1294;62252;-80
2024/03/03 08:17:40;;;;;;;;;;;;;;;19.83;33.21;100827.52;102857;1291;62178;-80
2024/03/03 08:20:06;;;;;;;;;;;;;;;19.84;33.05;100822.13;102938;1292;63367;-80
2024/03/03 08:22:32;;;;;;;;;;;;;;;19.83;33.36;100823.23;102857;1291;75134;-79
2024/03/03 08:24:57;;;;;;;;;;;;;;;19.83;33.25;100825.77;102922;1289;62212;-79
2024/03/03 08:27:23;;;;;;;;;;;;;;;19.83;33.21;100822.88;102738;1291;62191;-79
2024/03/03 08:29:49;;;;;;;;;;;;;;;19.83;33.35;100825.40;102672;1295;62244;-79
2024/03/03 08:32:14;;;;;;;;;;;;;;;19.83;33.31;100823.61;103002;1291;62282;-80
2024/03/03 08:34:40;;;;;;;;;;;;;;;19.83;33.32;100826.27;102703;1291;74775;-81
2024/03/03 08:37:05;;;;;;;;;;;;;;;19.83;33.16;100826.66;102830;1292;62249;-80
2024/03/03 08:39:31;;;;;;;;;;;;;;;19.83;33.29;100825.20;102655;1294;62269;-78
2024/03/03 08:41:57;;;;;;;;;;;;;;;19.83;33.17;100825.72;102776;1291;63407;-78
2024/03/03 08:44:22;;;;;;;;;;;;;;;19.83;33.25;100826.66;102745;1295;62204;-79
2024/03/03 08:46:50;;;;;;;;;;;;;;;19.82;33.08;100824.36;102603;1291;75700;-81
2024/03/03 08:49:16;;;;;;;;;;;;;;;19.83;33.14;100826.10;102727;1291;62191;-78
2024/03/03 08:51:50;;;;;;;;;;;;;;;19.83;33.08;100822.00;102722;1291;63596;-80
2024/03/03 08:54:16;;;;;;;;;;;;;;;19.83;33.11;100822.38;102677;1297;72413;-80
2024/03/03 08:56:42;;;;;;;;;;;;;;;19.83;33.21;100824.35;102829;1291;63536;-79
2024/03/03 08:59:15;;;;;;;;;;;;;;;19.83;33.33;100824.51;102625;1297;62131;-80
2024/03/03 09:01:41;;;;;;;;;;;;;;;19.83;33.17;100826.63;102632;1291;62342;-79
2024/03/03 09:04:07;;;;;;;;;;;;;;;19.83;33.22;100825.75;102705;1297;62306;-79
2024/03/03 09:06:32;;;;;;;;;;;;;;;19.83;33.03;100824.30;102592;1292;62235;-80
2024/03/03 09:08:58;;;;;;;;;;;;;;;19.83;33.25;100822.90;102675;1293;62372;-79
2024/03/03 09:11:23;;;;;;;;;;;;;;;19.84;33.21;100822.67;102761;1292;63468;-81
2024/03/03 09:13:49;;;;;;;;;;;;;;;19.83;33.25;100824.11;102622;1291;62239;-80
2024/03/03 09:16:14;;;;;;;;;;;;;;;19.83;33.18;100825.35;102814;1291;62403;-79
2024/03/03 09:18:40;;;;;;;;;;;;;;;19.84;33.28;100823.54;102835;1291;63474;-79
2024/03/03 09:21:07;;;;;;;;;;;;;;;19.84;33.27;100823.38;102998;1292;62205;-79
2024/03/03 09:23:32;;;;;;;;;;;;;;;19.84;33.26;100826.23;102759;1291;62242;-79
2024/03/03 09:25:59;;;;;;;;;;;;;;;19.84;33.24;100820.49;102937;1291;62213;-79
2024/03/03 09:28:25;;;;;;;;;;;;;;;19.84;33.24;100816.23;102691;1291;72554;-80
2024/03/03 09:30:50;;;;;;;;;;;;;;;19.84;33.25;100814.96;102650;1289;63310;-79
2024/03/03 09:33:16;;;;;;;;;;;;;;;19.84;33.16;100815.30;103061;1290;62222;-78
2024/03/03 09:35:41;;;;;;;;;;;;;;;19.84;33.13;100814.06;102997;1292;62202;-79
2024/03/03 09:38:07;;;;;;;;;;;;;;;19.85;33.15;100815.12;103038;1291;62224;-78
2024/03/03 09:40:35;;;;;;;;;;;;;;;19.84;33.07;100814.39;103029;1292;72492;-79
2024/03/03 09:43:02;;;;;;;;;;;;;;;19.84;33.15;100814.93;103000;1291;75356;-79
2024/03/03 09:45:27;;;;;;;;;;;;;;;19.84;33.18;100815.12;102720;1292;63237;-79
2024/03/03 09:47:53;;;;;;;;;;;;;;;19.84;33.22;100810.11;102979;1294;63374;-78
2024/03/03 09:50:18;;;;;;;;;;;;;;;19.84;33.22;100813.69;102755;1292;62283;-82
2024/03/03 09:52:44;;;;;;;;;;;;;;;19.84;33.10;100812.79;102612;1297;62178;-79
2024/03/03 09:55:10;;;;;;;;;;;;;;;19.84;33.14;100811.36;103165;1292;62213;-79
2024/03/03 09:57:36;;;;;;;;;;;;;;;19.84;33.03;100812.44;103009;1291;62197;-81
2024/03/03 10:00:03;;;;;;;;;;;;;;;19.85;33.09;100815.09;102643;1291;62289;-78
2024/03/03 10:02:28;;;;;;;;;;;;;;;19.84;33.20;100809.59;102724;1291;62204;-79
2024/03/03 10:04:54;;;;;;;;;;;;;;;19.85;33.09;100808.65;103020;1294;62175;-80
2024/03/03 10:07:24;;;;;;;;;;;;;;;19.85;33.11;100809.92;102579;1294;62370;-80
2024/03/03 10:10:08;;;;;;;;;;;;;;;19.84;32.95;100808.52;102533;1294;62140;-79
2024/03/03 10:12:34;;;;;;;;;;;;;;;19.85;32.99;100805.64;102513;1295;72418;-80
2024/03/03 10:15:00;;;;;;;;;;;;;;;19.85;33.17;100805.98;102552;1298;62375;-80
2024/03/03 10:17:26;;;;;;;;;;;;;;;19.85;33.22;100802.23;102572;1295;62203;-79
2024/03/03 10:19:51;;;;;;;;;;;;;;;19.85;33.03;100802.60;102591;1294;62206;-80
2024/03/03 10:22:20;;;;;;;;;;;;;;;19.84;33.06;100796.54;102514;1293;62446;-82
2024/03/03 10:24:46;;;;;;;;;;;;;;;19.85;33.03;100789.89;102548;1297;62270;-80
2024/03/03 10:27:18;;;;;;;;;;;;;;;19.85;33.06;100787.41;102678;1297;63333;-80
2024/03/03 10:29:43;;;;;;;;;;;;;;;19.84;33.05;100781.90;102535;1297;62276;-79
2024/03/03 10:32:10;;;;;;;;;;;;;;;19.85;33.13;100781.34;102580;1294;62232;-79
2024/03/03 10:34:38;;;;;;;;;;;;;;;19.85;33.07;100773.64;102542;1300;62393;-80
2024/03/03 10:37:04;;;;;;;;;;;;;;;19.85;32.97;100772.93;102518;1293;62223;-80
2024/03/03 10:39:35;;;;;;;;;;;;;;;19.85;33.09;100772.41;102665;1291;62267;-79
2024/03/03 10:42:04;;;;;;;;;;;;;;;19.85;33.14;100766.85;102557;1293;72548;-80
2024/03/03 10:44:30;;;;;;;;;;;;;;;19.85;33.13;100771.68;102603;1294;75362;-81
2024/03/03 10:46:56;;;;;;;;;;;;;;;19.85;33.07;100766.67;102522;1294;62286;-79
2024/03/03 10:49:21;;;;;;;;;;;;;;;19.84;33.02;100759.22;102493;1294;62232;-79
2024/03/03 10:51:47;;;;;;;;;;;;;;;19.85;33.09;100759.02;102654;1294;62303;-79
2024/03/03 10:54:13;;;;;;;;;;;;;;;19.85;32.93;100756.67;102542;1298;62215;-79
2024/03/03 10:56:38;;;;;;;;;;;;;;;19.85;33.12;100752.58;102556;1298;62376;-80
2024/03/03 10:59:04;;;;;;;;;;;;;;;19.84;33.00;100748.85;102584;1294;62167;-79
2024/03/03 11:01:30;;;;;;;;;;;;;;;19.85;32.93;100748.13;102550;1295;62336;-80
2024/03/03 11:03:56;;;;;;;;;;;;;;;19.85;32.89;100743.48;102519;1294;62313;-78
2024/03/03 11:06:21;;;;;;;;;;;;;;;19.84;32.90;100739.40;102954;1299;62375;-79
2024/03/03 11:08:51;;;;;;;;;;;;;;;19.84;33.00;100737.08;102530;1298;63422;-80
2024/03/03 11:11:21;;;;;;;;;;;;;;;19.85;32.98;100735.80;102521;1299;63334;-81
2024/03/03 11:14:10;;;;;;;;;;;;;;;19.85;32.93;100732.59;102824;1294;72518;-81
2024/03/03 11:16:35;;;;;;;;;;;;;;;19.84;32.95;100728.14;102708;1290;76409;-80
2024/03/03 11:19:05;;;;;;;;;;;;;;;19.84;33.06;100728.33;102835;1294;62220;-79
2024/03/03 11:21:31;;;;;;;;;;;;;;;19.85;32.89;100724.02;102777;1289;62115;-83
2024/03/03 11:24:17;;;;;;;;;;;;;;;19.85;32.84;100720.80;102551;1294;71169;-80
2024/03/03 11:26:43;;;;;;;;;;;;;;;19.84;32.84;100717.08;103122;1294;75315;-79
2024/03/03 11:29:09;;;;;;;;;;;;;;;19.85;33.00;100714.02;102725;1295;63240;-81
2024/03/03 11:31:36;;;;;;;;;;;;;;;19.84;32.92;100711.90;102841;1293;63393;-81
2024/03/03 11:34:01;;;;;;;;;;;;;;;19.84;32.90;100713.86;102901;1295;62581;-75
2024/03/03 11:36:27;;;;;;;;;;;;;;;19.85;32.71;100709.36;102724;1292;63292;-79
2024/03/03 11:38:55;;;;;;;;;;;;;;;19.85;32.86;100706.67;103159;1291;62300;-77
2024/03/03 11:41:21;;;;;;;;;;;;;;;19.84;32.90;100704.92;103040;1291;62287;-78
2024/03/03 11:43:46;;;;;;;;;;;;;;;19.85;32.89;100706.33;102989;1294;62399;-78
2024/03/03 11:46:32;;;;;;;;;;;;;;;19.85;32.74;100703.45;102819;1294;63273;-79
2024/03/03 11:48:59;;;;;;;;;;;;;;;19.85;32.91;100701.70;102892;1289;62131;-79
2024/03/03 11:51:26;;;;;;;;;;;;;;;19.86;32.75;100702.52;102988;1289;62105;-79
2024/03/03 11:54:04;;;;;;;;;;;;;;;19.85;32.90;100700.08;103361;1290;62199;-78
2024/03/03 11:56:30;;;;;;;;;;;;;;;19.85;32.78;100700.04;103139;1289;75505;-79
2024/03/03 11:58:56;;;;;;;;;;;;;;;19.85;32.81;100698.25;103007;1294;62308;-79
2024/03/03 12:01:22;;;;;;;;;;;;;;;19.86;32.84;100696.41;102939;1294;63244;-79
2024/03/03 12:03:48;;;;;;;;;;;;;;;19.86;32.80;100696.63;102985;1295;62298;-81
2024/03/03 12:06:14;;;;;;;;;;;;;;;19.86;32.82;100696.41;103086;1294;62166;-79
2024/03/03 12:08:40;;;;;;;;;;;;;;;19.86;32.72;100694.48;102884;1292;63520;-79
2024/03/03 12:11:11;;;;;;;;;;;;;;;19.85;32.70;100688.96;102918;1295;62147;-80
2024/03/03 12:13:37;;;;;;;;;;;;;;;19.85;32.69;100691.10;102875;1293;62098;-81
2024/03/03 12:16:02;;;;;;;;;;;;;;;19.85;32.64;100692.17;102788;1292;62261;-79
2024/03/03 12:18:28;;;;;;;;;;;;;;;19.85;32.82;100690.73;102868;1291;63752;-80
2024/03/03 12:20:53;;;;;;;;;;;;;;;19.85;32.55;100689.52;102867;1294;62210;-79